createdAt,value
2023-04-07T00:01:01.623Z,4.02
2023-04-07T00:03:29.042Z,4.40
2023-04-07T00:05:56.337Z,4.25
2023-04-07T00:08:23.525Z,4.16
2023-04-07T00:10:50.808Z,4.06
2023-04-07T00:13:17.949Z,4.41
2023-04-07T00:15:45.148Z,4.50
2023-04-07T00:18:12.445Z,4.57
2023-04-07T00:20:39.816Z,4.74
2023-04-07T00:23:07.042Z,4.64
2023-04-07T00:25:34.193Z,4.59
2023-04-07T00:28:01.384Z,4.39
2023-04-07T00:30:28.617Z,4.47
2023-04-07T00:32:55.841Z,4.52
2023-04-07T00:35:23.221Z,4.36
2023-04-07T00:37:50.568Z,4.90
2023-04-07T00:40:18.337Z,5.16
2023-04-07T00:42:45.508Z,5.29
2023-04-07T00:45:12.832Z,4.79
2023-04-07T00:47:40.602Z,4.76
2023-04-07T00:50:08.871Z,4.73
2023-04-07T00:52:36.811Z,4.68
2023-04-07T00:55:04.238Z,5.06
2023-04-07T00:57:34.297Z,5.06
2023-04-07T01:00:01.651Z,5.35
2023-04-07T01:02:43.295Z,4.58
2023-04-07T01:06:08.153Z,4.16
2023-04-07T01:09:18.495Z,3.56
2023-04-07T01:12:47.475Z,4.47
2023-04-07T01:15:17.767Z,4.16
2023-04-07T01:17:52.966Z,4.41
2023-04-07T01:20:23.377Z,4.05
2023-04-07T01:22:57.185Z,4.16
2023-04-07T01:26:27.953Z,3.56
2023-04-07T01:29:34.462Z,3.33
2023-04-07T01:32:06.343Z,3.52
2023-04-07T01:34:35.040Z,3.59
2023-04-07T01:37:03.928Z,3.39
2023-04-07T01:39:32.538Z,3.60
2023-04-07T01:42:02.316Z,3.45
2023-04-07T01:44:30.177Z,3.63
2023-04-07T01:46:57.927Z,3.76
2023-04-07T01:49:27.253Z,3.68
2023-04-07T01:51:56.002Z,3.48
2023-04-07T01:54:23.995Z,3.58
2023-04-07T01:56:51.080Z,3.42
2023-04-07T01:59:20.512Z,3.46
2023-04-07T02:01:48.725Z,3.46
2023-04-07T02:04:40.436Z,3.40
2023-04-07T02:07:25.187Z,3.31
2023-04-07T02:09:56.556Z,3.22
2023-04-07T02:12:27.379Z,3.36
2023-04-07T02:14:56.682Z,3.73
2023-04-07T02:17:27.017Z,3.47
2023-04-07T02:19:56.778Z,3.68
2023-04-07T02:22:23.983Z,3.39
2023-04-07T02:24:51.181Z,3.43
2023-04-07T02:27:18.518Z,3.23
2023-04-07T02:29:45.681Z,3.55
2023-04-07T02:32:13.889Z,3.42
2023-04-07T02:34:41.958Z,3.31
2023-04-07T02:37:11.185Z,3.14
2023-04-07T02:39:38.277Z,3.14
2023-04-07T02:42:05.517Z,3.35
2023-04-07T02:44:32.701Z,3.19
2023-04-07T02:46:59.810Z,3.02
2023-04-07T02:49:27.086Z,3.25
2023-04-07T02:51:54.189Z,2.69
2023-04-07T02:54:21.561Z,3.07
2023-04-07T02:56:48.598Z,2.86
2023-04-07T02:59:15.812Z,3.07
2023-04-07T03:01:42.923Z,3.13
2023-04-07T03:04:10.110Z,3.23
2023-04-07T03:06:37.217Z,2.99
2023-04-07T03:09:04.577Z,3.28
2023-04-07T03:11:31.699Z,3.33
2023-04-07T03:13:58.773Z,3.30
2023-04-07T03:16:25.881Z,3.39
2023-04-07T03:18:53.118Z,3.20
2023-04-07T03:21:20.141Z,3.32
2023-04-07T03:23:47.181Z,3.23
2023-04-07T03:26:14.317Z,3.40
2023-04-07T03:28:41.626Z,3.18
2023-04-07T03:31:08.947Z,3.13
2023-04-07T03:33:36.372Z,3.15
2023-04-07T03:36:03.713Z,3.42
2023-04-07T03:38:30.895Z,3.45
2023-04-07T03:40:57.935Z,3.64
2023-04-07T03:43:25.389Z,3.38
2023-04-07T03:45:54.363Z,3.53
2023-04-07T03:48:21.666Z,3.56
2023-04-07T03:50:48.822Z,3.39
2023-04-07T03:53:16.771Z,3.17
2023-04-07T03:55:44.331Z,3.40
2023-04-07T03:58:11.993Z,3.39
2023-04-07T04:00:39.399Z,3.68
2023-04-07T04:03:06.715Z,3.42
2023-04-07T04:05:33.839Z,3.53
2023-04-07T04:08:00.857Z,3.37
2023-04-07T04:10:27.901Z,3.29
2023-04-07T04:12:55.102Z,3.32
2023-04-07T04:15:22.239Z,3.27
2023-04-07T04:17:49.327Z,3.21
2023-04-07T04:20:16.457Z,3.14
2023-04-07T04:22:43.640Z,3.04
2023-04-07T04:25:10.794Z,2.94
2023-04-07T04:27:37.875Z,2.93
2023-04-07T04:30:06.157Z,2.69
2023-04-07T04:32:35.287Z,3.03
2023-04-07T04:35:02.398Z,2.70
2023-04-07T04:37:29.484Z,2.78
2023-04-07T04:39:59.619Z,2.78
2023-04-07T04:42:27.879Z,2.49
2023-04-07T04:44:55.243Z,2.71
2023-04-07T04:47:22.366Z,2.84
2023-04-07T04:49:49.445Z,2.69
2023-04-07T04:52:16.486Z,2.80
2023-04-07T04:54:43.600Z,2.75
2023-04-07T04:57:10.900Z,2.91
2023-04-07T04:59:38.087Z,2.92
2023-04-07T05:02:06.043Z,3.06
2023-04-07T05:04:33.520Z,3.31
2023-04-07T05:07:01.013Z,3.20
2023-04-07T05:09:28.035Z,3.24
2023-04-07T05:11:55.748Z,3.33
2023-04-07T05:14:22.802Z,3.15
2023-04-07T05:16:49.833Z,3.58
2023-04-07T05:19:16.897Z,3.61
2023-04-07T05:21:43.942Z,3.42
2023-04-07T05:24:10.984Z,3.55
2023-04-07T05:26:38.055Z,3.53
2023-04-07T05:29:05.180Z,3.71
2023-04-07T05:31:33.496Z,3.29
2023-04-07T05:34:00.994Z,3.49
2023-04-07T05:36:28.091Z,3.63
2023-04-07T05:38:55.360Z,4.03
2023-04-07T05:41:22.416Z,3.87
2023-04-07T05:43:49.637Z,4.08
2023-04-07T05:46:16.852Z,3.82
2023-04-07T05:48:44.130Z,4.08
2023-04-07T05:51:11.198Z,3.91
2023-04-07T05:53:38.239Z,4.12
2023-04-07T05:56:05.970Z,4.12
2023-04-07T05:58:33.226Z,4.25
2023-04-07T06:01:00.372Z,4.05
2023-04-07T06:03:27.525Z,4.76
2023-04-07T06:05:54.706Z,4.75
2023-04-07T06:08:21.988Z,4.45
2023-04-07T06:10:51.318Z,4.79
2023-04-07T06:13:18.512Z,4.50
2023-04-07T06:15:45.756Z,4.15
2023-04-07T06:18:12.836Z,4.78
2023-04-07T06:20:40.074Z,4.40
2023-04-07T06:23:10.267Z,4.34
2023-04-07T06:25:37.534Z,4.37
2023-04-07T06:28:04.690Z,4.73
2023-04-07T06:30:31.779Z,4.52
2023-04-07T06:32:59.152Z,4.36
2023-04-07T06:35:27.515Z,4.33
2023-04-07T06:37:54.649Z,4.57
2023-04-07T06:40:21.693Z,4.75
2023-04-07T06:42:48.815Z,4.65
2023-04-07T06:45:15.942Z,4.33
2023-04-07T06:47:43.282Z,4.72
2023-04-07T06:50:10.818Z,4.66
2023-04-07T06:52:37.898Z,4.74
2023-04-07T06:55:07.640Z,5.11
2023-04-07T06:57:34.774Z,5.45
2023-04-07T07:00:01.810Z,5.09
2023-04-07T07:02:28.930Z,4.88
2023-04-07T07:04:58.350Z,5.18
2023-04-07T07:07:25.951Z,5.04
2023-04-07T07:09:54.174Z,5.16
2023-04-07T07:12:21.254Z,5.25
2023-04-07T07:14:48.320Z,5.09
2023-04-07T07:17:15.532Z,5.13
2023-04-07T07:19:43.338Z,5.11
2023-04-07T07:22:10.773Z,5.84
2023-04-07T07:24:38.146Z,6.10
2023-04-07T07:27:05.517Z,5.93
2023-04-07T07:29:32.673Z,5.98
2023-04-07T07:31:59.718Z,5.83
2023-04-07T07:34:26.931Z,5.55
2023-04-07T07:36:54.005Z,5.58
2023-04-07T07:39:23.546Z,5.94
2023-04-07T07:41:51.610Z,5.92
2023-04-07T07:44:20.308Z,6.57
2023-04-07T07:46:48.513Z,6.14
2023-04-07T07:49:18.246Z,6.26
2023-04-07T07:51:46.679Z,6.60
2023-04-07T07:54:14.208Z,6.44
2023-04-07T07:56:41.430Z,5.89
2023-04-07T07:59:08.536Z,6.52
2023-04-07T08:01:35.878Z,6.53
2023-04-07T08:04:03.093Z,6.75
2023-04-07T08:06:31.473Z,6.88
2023-04-07T08:08:59.334Z,6.35
2023-04-07T08:11:26.460Z,6.30
2023-04-07T08:13:54.290Z,7.05
2023-04-07T08:16:22.308Z,7.04
2023-04-07T08:18:50.005Z,6.67
2023-04-07T08:21:17.412Z,7.06
2023-04-07T08:23:44.596Z,6.92
2023-04-07T08:26:11.648Z,6.34
2023-04-07T08:28:40.287Z,6.80
2023-04-07T08:31:08.450Z,6.40
2023-04-07T08:33:35.587Z,6.64
2023-04-07T08:36:02.634Z,6.84
2023-04-07T08:38:29.700Z,6.87
2023-04-07T08:41:10.095Z,6.46
2023-04-07T08:43:38.542Z,7.30
2023-04-07T08:46:09.350Z,7.14
2023-04-07T08:48:40.571Z,7.16
2023-04-07T08:51:10.361Z,6.77
2023-04-07T08:53:53.718Z,7.07
2023-04-07T08:56:21.931Z,6.61
2023-04-07T08:58:49.649Z,6.81
2023-04-07T09:01:18.201Z,6.78
2023-04-07T09:03:47.220Z,6.33
2023-04-07T09:06:14.984Z,6.71
2023-04-07T09:08:42.213Z,7.10
2023-04-07T09:11:09.291Z,6.78
2023-04-07T09:13:36.368Z,7.04
2023-04-07T09:16:03.918Z,7.14
2023-04-07T09:18:31.230Z,6.97
2023-04-07T09:21:02.948Z,7.37
2023-04-07T09:23:33.814Z,6.98
2023-04-07T09:26:22.827Z,6.71
2023-04-07T09:29:00.003Z,6.79
2023-04-07T09:31:48.411Z,7.11
2023-04-07T09:34:39.711Z,6.69
2023-04-07T09:37:11.989Z,7.28
2023-04-07T09:39:54.018Z,6.80
2023-04-07T09:42:22.325Z,6.80
2023-04-07T09:44:49.868Z,6.81
2023-04-07T09:47:18.302Z,6.86
2023-04-07T09:49:54.552Z,7.10
2023-04-07T09:52:52.396Z,7.56
2023-04-07T09:55:26.911Z,6.79
2023-04-07T09:58:15.559Z,6.61
2023-04-07T10:00:43.918Z,6.94
2023-04-07T10:03:15.995Z,7.56
2023-04-07T10:05:44.546Z,7.12
2023-04-07T10:08:14.392Z,7.38
2023-04-07T10:10:43.885Z,6.78
2023-04-07T10:13:14.183Z,7.47
2023-04-07T10:15:41.584Z,7.41
2023-04-07T10:18:09.164Z,7.50
2023-04-07T10:20:43.857Z,7.38
2023-04-07T10:23:22.213Z,7.52
2023-04-07T10:25:52.668Z,7.48
2023-04-07T10:28:24.738Z,6.48
2023-04-07T10:30:53.046Z,7.15
2023-04-07T10:33:49.756Z,7.88
2023-04-07T10:36:22.284Z,7.78
2023-04-07T10:39:11.045Z,7.38
2023-04-07T10:41:39.947Z,6.97
2023-04-07T10:44:31.194Z,7.03
2023-04-07T10:47:06.482Z,7.10
2023-04-07T10:49:35.014Z,6.93
2023-04-07T10:52:15.019Z,7.23
2023-04-07T10:54:43.949Z,6.91
2023-04-07T10:57:16.935Z,7.36
2023-04-07T11:00:09.813Z,7.79
2023-04-07T11:02:40.467Z,7.86
2023-04-07T11:05:25.112Z,7.78
2023-04-07T11:07:58.307Z,7.03
2023-04-07T11:10:26.178Z,7.42
2023-04-07T11:13:07.945Z,7.30
2023-04-07T11:15:40.628Z,7.69
2023-04-07T11:18:17.734Z,7.56
2023-04-07T11:21:00.833Z,7.06
2023-04-07T11:23:28.478Z,7.71
2023-04-07T11:26:03.164Z,6.73
2023-04-07T11:28:31.779Z,7.70
2023-04-07T11:31:00.028Z,7.90
2023-04-07T11:33:32.170Z,7.13
2023-04-07T11:36:02.723Z,7.25
2023-04-07T11:38:38.221Z,7.24
2023-04-07T11:41:15.695Z,6.72
2023-04-07T11:43:43.144Z,6.73
2023-04-07T11:46:16.710Z,6.68
2023-04-07T11:48:47.183Z,7.26
2023-04-07T11:51:20.296Z,6.78
2023-04-07T11:53:48.235Z,7.75
2023-04-07T11:56:17.442Z,7.29
2023-04-07T11:58:55.561Z,8.07
2023-04-07T12:01:26.023Z,7.98
2023-04-07T12:04:04.536Z,7.29
2023-04-07T12:06:38.775Z,7.27
2023-04-07T12:09:06.408Z,7.30
2023-04-07T12:11:34.629Z,7.74
2023-04-07T12:14:05.127Z,8.00
2023-04-07T12:16:32.277Z,7.62
2023-04-07T12:18:59.453Z,7.58
2023-04-07T12:21:27.542Z,7.27
2023-04-07T12:23:54.595Z,7.49
2023-04-07T12:26:23.403Z,7.40
2023-04-07T12:28:50.695Z,7.66
2023-04-07T12:31:17.963Z,7.12
2023-04-07T12:33:45.288Z,7.73
2023-04-07T12:36:12.671Z,7.67
2023-04-07T12:38:39.798Z,7.95
2023-04-07T12:41:06.859Z,7.55
2023-04-07T12:43:34.760Z,7.64
2023-04-07T12:46:01.886Z,8.14
2023-04-07T12:48:29.018Z,8.23
2023-04-07T12:50:56.265Z,8.38
2023-04-07T12:53:23.618Z,8.09
2023-04-07T12:55:53.041Z,8.32
2023-04-07T12:58:20.341Z,7.30
2023-04-07T13:00:47.683Z,7.34
2023-04-07T13:03:17.487Z,7.85
2023-04-07T13:05:44.896Z,7.12
2023-04-07T13:08:12.044Z,7.69
2023-04-07T13:10:39.251Z,7.75
2023-04-07T13:13:07.267Z,7.83
2023-04-07T13:15:34.440Z,7.38
2023-04-07T13:18:01.840Z,7.77
2023-04-07T13:20:30.341Z,7.14
2023-04-07T13:23:07.838Z,7.19
2023-04-07T13:25:39.210Z,7.70
2023-04-07T13:28:06.641Z,7.69
2023-04-07T13:30:33.858Z,8.06
2023-04-07T13:33:02.549Z,7.94
2023-04-07T13:35:30.983Z,7.60
2023-04-07T13:37:58.393Z,8.21
2023-04-07T13:40:25.685Z,7.41
2023-04-07T13:42:52.733Z,8.02
2023-04-07T13:45:20.034Z,8.11
2023-04-07T13:47:47.467Z,8.49
2023-04-07T13:50:14.663Z,8.44
2023-04-07T13:52:41.798Z,7.88
2023-04-07T13:55:09.675Z,7.55
2023-04-07T13:57:36.752Z,7.68
2023-04-07T14:00:04.572Z,7.91
2023-04-07T14:02:32.760Z,7.54
2023-04-07T14:05:00.008Z,8.20
2023-04-07T14:07:27.080Z,7.43
2023-04-07T14:09:54.525Z,7.82
2023-04-07T14:12:22.204Z,8.45
2023-04-07T14:14:52.128Z,8.01
2023-04-07T14:17:22.242Z,7.81
2023-04-07T14:19:49.331Z,8.46
2023-04-07T14:22:16.462Z,7.62
2023-04-07T14:24:43.680Z,9.02
2023-04-07T14:27:11.180Z,8.68
2023-04-07T14:29:38.207Z,8.75
2023-04-07T14:32:05.338Z,8.66
2023-04-07T14:34:32.390Z,8.57
2023-04-07T14:36:59.817Z,8.73
2023-04-07T14:39:27.005Z,8.81
2023-04-07T14:41:54.111Z,9.04
2023-04-07T14:44:21.340Z,8.66
2023-04-07T14:46:48.664Z,8.41
2023-04-07T14:49:21.134Z,7.97
2023-04-07T14:51:48.453Z,8.21
2023-04-07T14:54:15.505Z,8.15
2023-04-07T14:56:42.566Z,7.75
2023-04-07T14:59:09.620Z,8.74
2023-04-07T15:01:37.604Z,8.73
2023-04-07T15:04:04.868Z,9.23
2023-04-07T15:06:32.232Z,8.58
2023-04-07T15:08:59.304Z,9.01
2023-04-07T15:11:27.328Z,8.15
2023-04-07T15:13:54.474Z,8.06
2023-04-07T15:16:21.638Z,8.78
2023-04-07T15:18:48.839Z,8.82
2023-04-07T15:21:16.466Z,9.02
2023-04-07T15:23:43.690Z,9.67
2023-04-07T15:26:11.383Z,9.74
2023-04-07T15:28:42.005Z,8.49
2023-04-07T15:31:09.956Z,8.48
2023-04-07T15:33:39.742Z,9.03
2023-04-07T15:36:08.783Z,8.40
2023-04-07T15:38:36.515Z,7.79
2023-04-07T15:41:03.894Z,7.91
2023-04-07T15:43:31.004Z,8.66
2023-04-07T15:46:00.498Z,7.60
2023-04-07T15:48:30.705Z,8.19
2023-04-07T15:50:57.850Z,7.70
2023-04-07T15:53:26.121Z,8.15
2023-04-07T15:55:53.249Z,8.58
2023-04-07T15:58:23.030Z,8.88
2023-04-07T16:00:50.334Z,9.06
2023-04-07T16:03:19.945Z,9.58
2023-04-07T16:05:47.430Z,9.53
2023-04-07T16:08:14.769Z,9.73
2023-04-07T16:10:42.176Z,9.74
2023-04-07T16:13:10.773Z,9.30
2023-04-07T16:15:40.733Z,9.68
2023-04-07T16:18:12.164Z,9.58
2023-04-07T16:20:39.686Z,9.57
2023-04-07T16:23:06.786Z,9.83
2023-04-07T16:25:33.910Z,9.71
2023-04-07T16:28:01.109Z,10.13
2023-04-07T16:30:37.592Z,9.78
2023-04-07T16:33:04.795Z,10.22
2023-04-07T16:35:32.305Z,9.64
2023-04-07T16:38:04.396Z,9.35
2023-04-07T16:40:35.101Z,9.66
2023-04-07T16:43:02.300Z,9.91
2023-04-07T16:45:32.994Z,9.56
2023-04-07T16:48:00.919Z,9.43
2023-04-07T16:50:28.402Z,9.51
2023-04-07T16:52:58.370Z,9.70
2023-04-07T16:55:28.887Z,9.93
2023-04-07T16:57:56.074Z,9.84
2023-04-07T17:00:23.215Z,9.41
2023-04-07T17:02:50.399Z,9.32
2023-04-07T17:05:18.127Z,9.13
2023-04-07T17:07:47.579Z,9.56
2023-04-07T17:10:14.773Z,8.85
2023-04-07T17:12:41.835Z,8.54
2023-04-07T17:15:09.788Z,8.49
2023-04-07T17:17:38.106Z,8.61
2023-04-07T17:20:06.042Z,8.10
2023-04-07T17:22:34.543Z,8.40
2023-04-07T17:25:01.613Z,9.24
2023-04-07T17:27:28.640Z,8.69
2023-04-07T17:29:55.988Z,8.52
2023-04-07T17:32:23.084Z,9.40
2023-04-07T17:34:50.198Z,9.49
2023-04-07T17:37:17.295Z,9.40
2023-04-07T17:39:44.335Z,9.15
2023-04-07T17:42:11.465Z,7.50
2023-04-07T17:44:38.592Z,7.70
2023-04-07T17:47:05.650Z,8.17
2023-04-07T17:49:32.711Z,8.11
2023-04-07T17:52:02.840Z,8.46
2023-04-07T17:54:30.502Z,7.90
2023-04-07T17:56:57.965Z,8.17
2023-04-07T17:59:25.066Z,8.37
2023-04-07T18:01:52.311Z,8.60
2023-04-07T18:04:19.507Z,8.83
2023-04-07T18:06:46.893Z,8.70
2023-04-07T18:09:17.034Z,9.02
2023-04-07T18:11:47.713Z,8.79
2023-04-07T18:14:14.782Z,9.47
2023-04-07T18:16:41.846Z,9.24
2023-04-07T18:19:08.913Z,8.34
2023-04-07T18:21:36.300Z,7.69
2023-04-07T18:24:03.435Z,7.48
2023-04-07T18:26:30.480Z,7.81
2023-04-07T18:28:57.698Z,7.85
2023-04-07T18:31:24.943Z,7.70
2023-04-07T18:33:52.201Z,7.60
2023-04-07T18:36:19.505Z,7.62
2023-04-07T18:38:46.599Z,7.34
2023-04-07T18:41:14.216Z,7.75
2023-04-07T18:43:42.092Z,7.98
2023-04-07T18:46:09.230Z,7.34
2023-04-07T18:48:36.426Z,7.40
2023-04-07T18:51:03.814Z,7.10
2023-04-07T18:53:31.330Z,7.67
2023-04-07T18:55:59.087Z,7.58
2023-04-07T18:58:26.316Z,7.02
2023-04-07T19:00:54.501Z,7.20
2023-04-07T19:03:22.300Z,7.26
2023-04-07T19:05:52.377Z,7.48
2023-04-07T19:08:19.856Z,7.62
2023-04-07T19:10:48.048Z,7.19
2023-04-07T19:13:17.795Z,7.13
2023-04-07T19:15:46.213Z,7.49
2023-04-07T19:18:13.633Z,7.59
2023-04-07T19:20:41.074Z,7.57
2023-04-07T19:23:08.162Z,7.87
2023-04-07T19:25:35.381Z,7.33
2023-04-07T19:28:03.415Z,7.79
2023-04-07T19:30:30.478Z,7.23
2023-04-07T19:32:57.716Z,7.03
2023-04-07T19:35:25.525Z,7.49
2023-04-07T19:37:53.589Z,6.88
2023-04-07T19:40:20.738Z,7.33
2023-04-07T19:42:47.763Z,7.46
2023-04-07T19:45:14.892Z,7.04
2023-04-07T19:47:43.513Z,7.05
2023-04-07T19:50:11.815Z,7.68
2023-04-07T19:52:38.876Z,7.68
2023-04-07T19:55:07.136Z,7.99
2023-04-07T19:57:35.787Z,8.24
2023-04-07T20:00:04.321Z,7.56
2023-04-07T20:02:33.836Z,8.47
2023-04-07T20:05:00.969Z,7.78
2023-04-07T20:07:28.063Z,7.75
2023-04-07T20:09:57.555Z,7.54
2023-04-07T20:12:24.856Z,8.38
2023-04-07T20:14:51.946Z,7.98
2023-04-07T20:17:19.917Z,8.24
2023-04-07T20:19:47.843Z,7.94
2023-04-07T20:22:14.962Z,7.77
2023-04-07T20:24:42.092Z,7.82
2023-04-07T20:27:09.166Z,7.95
2023-04-07T20:29:36.602Z,7.39
2023-04-07T20:32:03.678Z,7.39
2023-04-07T20:34:30.993Z,7.78
2023-04-07T20:36:58.585Z,7.84
2023-04-07T20:39:25.701Z,8.11
2023-04-07T20:41:52.796Z,7.59
2023-04-07T20:44:19.992Z,7.81
2023-04-07T20:46:48.297Z,7.62
2023-04-07T20:49:15.582Z,7.33
2023-04-07T20:51:42.631Z,7.54
2023-04-07T20:54:09.792Z,7.55
2023-04-07T20:56:36.927Z,7.73
2023-04-07T20:59:04.026Z,7.42
2023-04-07T21:01:31.530Z,7.67
2023-04-07T21:04:00.768Z,7.29
2023-04-07T21:06:27.957Z,7.72
2023-04-07T21:08:55.071Z,7.80
2023-04-07T21:11:22.113Z,7.57
2023-04-07T21:13:49.224Z,7.16
2023-04-07T21:16:16.357Z,7.47
2023-04-07T21:18:43.590Z,6.76
2023-04-07T21:21:11.308Z,7.36
2023-04-07T21:23:38.618Z,7.08
2023-04-07T21:26:05.872Z,7.03
2023-04-07T21:28:32.923Z,7.62
2023-04-07T21:31:01.255Z,7.25
2023-04-07T21:33:28.501Z,7.11
2023-04-07T21:35:55.733Z,7.22
2023-04-07T21:38:22.819Z,7.25
2023-04-07T21:40:49.949Z,7.21
2023-04-07T21:43:17.088Z,7.36
2023-04-07T21:45:46.938Z,7.22
2023-04-07T21:48:16.075Z,7.45
2023-04-07T21:50:43.525Z,7.39
2023-04-07T21:53:10.591Z,7.04
2023-04-07T21:55:37.757Z,7.17
2023-04-07T21:58:07.603Z,7.42
2023-04-07T22:00:34.843Z,7.76
2023-04-07T22:03:02.335Z,7.28
2023-04-07T22:05:29.590Z,6.67
2023-04-07T22:07:59.894Z,7.27
2023-04-07T22:10:27.084Z,6.94
2023-04-07T22:12:54.414Z,7.42
2023-04-07T22:15:22.083Z,7.23
2023-04-07T22:17:49.303Z,7.04
2023-04-07T22:20:16.504Z,7.32
2023-04-07T22:22:44.021Z,7.11
2023-04-07T22:25:11.443Z,7.54
2023-04-07T22:27:38.609Z,7.34
2023-04-07T22:30:09.887Z,7.03
2023-04-07T22:32:37.337Z,7.54
2023-04-07T22:35:04.901Z,6.89
2023-04-07T22:37:31.999Z,7.09
2023-04-07T22:39:59.040Z,7.13
2023-04-07T22:42:29.251Z,7.19
2023-04-07T22:44:56.356Z,7.07
2023-04-07T22:47:23.535Z,7.06
2023-04-07T22:49:50.708Z,7.12
2023-04-07T22:52:17.888Z,7.33
2023-04-07T22:54:44.979Z,7.35
2023-04-07T22:57:12.044Z,7.10
2023-04-07T22:59:39.132Z,7.40
2023-04-07T23:02:06.290Z,7.20
2023-04-07T23:04:33.496Z,6.84
2023-04-07T23:07:00.563Z,7.23
2023-04-07T23:09:27.635Z,7.55
2023-04-07T23:11:54.702Z,7.57
2023-04-07T23:14:21.737Z,7.19
2023-04-07T23:16:48.855Z,7.53
2023-04-07T23:19:16.422Z,7.24
2023-04-07T23:21:44.041Z,7.03
2023-04-07T23:24:11.283Z,7.06
2023-04-07T23:26:38.366Z,7.41
2023-04-07T23:29:05.769Z,7.63
2023-04-07T23:31:32.972Z,7.14
2023-04-07T23:34:00.164Z,7.21
2023-04-07T23:36:27.939Z,6.92
2023-04-07T23:38:58.786Z,7.26
2023-04-07T23:41:25.873Z,7.33
2023-04-07T23:43:52.962Z,7.21
2023-04-07T23:46:20.043Z,7.86
2023-04-07T23:48:47.345Z,7.63
2023-04-07T23:51:14.538Z,7.57
2023-04-07T23:53:44.410Z,7.43
2023-04-07T23:56:11.535Z,7.16
2023-04-07T23:58:38.611Z,7.82
